Time;durP1;ratioP1;P1;durP2;ratioP2;P2;SDS_P1;SDS_P2;PMS_P1;PMS_P2;Temp;Humidity;BMP_temperature;BMP_pressure;BME280_temperature;BME280_humidity;BME280_pressure;Samples;Min_cycle;Max_cycle;Signal;HPM_P1;HPM_P2
2022/05/10 00:01:03;;;;;;;8.82;6.07;;;21.40;66.40;;;;;;6337594;22;20052;-76
2022/05/10 00:03:35;;;;;;;8.70;5.53;;;21.40;66.20;;;;;;6336929;22;20033;-76
2022/05/10 00:06:03;;;;;;;8.65;5.20;;;21.40;66.40;;;;;;6337917;22;20298;-75
2022/05/10 00:08:28;;;;;;;7.47;5.35;;;21.40;66.40;;;;;;6338535;22;20045;-74
2022/05/10 00:10:56;;;;;;;7.22;5.97;;;21.30;66.50;;;;;;6337625;22;20417;-75
2022/05/10 00:13:23;;;;;;;5.85;5.25;;;21.40;67.30;;;;;;6338173;22;20003;-75
2022/05/10 00:15:49;;;;;;;7.43;5.78;;;21.30;66.80;;;;;;6336254;22;19998;-76
2022/05/10 00:18:17;;;;;;;13.43;6.25;;;21.30;66.70;;;;;;6338223;22;20065;-75
2022/05/10 00:20:47;;;;;;;9.55;5.70;;;21.30;66.70;;;;;;6337701;22;20007;-75
2022/05/10 00:23:13;;;;;;;7.50;5.43;;;21.30;66.90;;;;;;6338044;22;20003;-75
2022/05/10 00:25:38;;;;;;;7.88;5.35;;;21.30;67.10;;;;;;6338318;22;20003;-74
2022/05/10 00:28:05;;;;;;;6.22;5.50;;;21.20;67.30;;;;;;6309517;22;19999;-75
2022/05/10 00:30:31;;;;;;;6.88;5.72;;;21.30;67.50;;;;;;6337684;22;20342;-75
2022/05/10 00:32:57;;;;;;;8.68;6.40;;;21.20;67.50;;;;;;6310445;22;20014;-75
2022/05/10 00:35:26;;;;;;;8.60;5.85;;;21.20;67.40;;;;;;6337934;22;20003;-75
2022/05/10 00:37:55;;;;;;;9.13;5.80;;;21.20;67.30;;;;;;6338336;22;20003;-73
2022/05/10 00:40:29;;;;;;;10.57;6.22;;;21.20;67.60;;;;;;6337834;22;19999;-74
2022/05/10 00:43:11;;;;;;;8.45;6.35;;;21.20;67.80;;;;;;6337597;22;20014;-74
2022/05/10 00:46:00;;;;;;;7.10;6.20;;;21.00;67.60;;;;;;6338033;22;20022;-74
2022/05/10 00:49:03;;;;;;;10.85;7.20;;;21.00;67.60;;;;;;6315822;22;20089;-74
2022/05/10 00:51:58;;;;;;;7.72;6.50;;;20.90;68.10;;;;;;6337504;22;19995;-74
2022/05/10 00:54:37;;;;;;;8.13;6.07;;;20.90;68.10;;;;;;6310270;22;20357;-74
2022/05/10 00:57:17;;;;;;;8.35;5.90;;;20.90;68.40;;;;;;6338086;22;19998;-74
2022/05/10 01:00:00;;;;;;;9.77;7.47;;;20.90;68.20;;;;;;6337792;22;20051;-75
2022/05/10 01:02:33;;;;;;;7.57;5.75;;;20.90;68.50;;;;;;6337707;22;20436;-74
2022/05/10 01:05:06;;;;;;;9.07;6.45;;;20.80;68.10;;;;;;6337651;22;20003;-75
2022/05/10 01:07:49;;;;;;;8.45;6.68;;;20.80;68.20;;;;;;6310222;22;20027;-75
2022/05/10 01:10:32;;;;;;;10.43;6.03;;;20.90;68.30;;;;;;6336479;22;20022;-74
2022/05/10 01:13:07;;;;;;;8.20;6.32;;;20.90;68.20;;;;;;6336954;22;20003;-74
2022/05/10 01:15:34;;;;;;;9.68;6.22;;;20.90;68.10;;;;;;6308761;22;20034;-75
2022/05/10 01:18:00;;;;;;;8.80;6.65;;;20.90;68.00;;;;;;6337616;22;20006;-75
2022/05/10 01:20:37;;;;;;;10.02;6.03;;;20.90;67.90;;;;;;6338368;22;20003;-75
2022/05/10 01:23:25;;;;;;;8.07;6.22;;;20.90;68.00;;;;;;6311552;22;20031;-75
2022/05/10 01:26:20;;;;;;;10.90;6.25;;;20.80;67.70;;;;;;6338152;22;20409;-75
2022/05/10 01:28:50;;;;;;;6.38;5.75;;;20.80;67.80;;;;;;6339459;22;20362;-75
2022/05/10 01:31:23;;;;;;;12.45;6.10;;;20.80;67.70;;;;;;6339004;22;20075;-74
2022/05/10 01:33:55;;;;;;;10.23;8.15;;;20.70;67.60;;;;;;6339238;22;20010;-76
2022/05/10 01:36:39;;;;;;;8.63;6.63;;;20.80;67.90;;;;;;6338238;22;19999;-75
2022/05/10 01:39:31;;;;;;;9.48;6.50;;;20.60;67.60;;;;;;6339377;22;20302;-74
2022/05/10 01:42:03;;;;;;;9.02;6.82;;;20.70;67.80;;;;;;6284117;22;20064;-74
2022/05/10 01:44:44;;;;;;;12.52;6.85;;;20.60;67.70;;;;;;6338515;22;20056;-75
2022/05/10 01:47:15;;;;;;;12.20;6.75;;;20.60;67.90;;;;;;6338963;22;20317;-74
2022/05/10 01:50:02;;;;;;;10.57;6.68;;;20.60;67.90;;;;;;6339045;22;20448;-75
2022/05/10 01:52:38;;;;;;;10.80;6.38;;;20.60;68.00;;;;;;6311325;22;20170;-75
2022/05/10 01:55:24;;;;;;;7.95;6.50;;;20.60;68.10;;;;;;6311799;22;20489;-74
2022/05/10 01:57:52;;;;;;;7.20;6.10;;;20.60;68.00;;;;;;6338676;22;19999;-74
2022/05/10 02:00:24;;;;;;;8.13;6.47;;;20.60;67.90;;;;;;6338700;22;20002;-74
2022/05/10 02:02:56;;;;;;;7.72;6.10;;;20.60;68.10;;;;;;6338652;22;20010;-74
2022/05/10 02:05:52;;;;;;;8.48;6.25;;;20.50;68.40;;;;;;6339554;22;20057;-74
2022/05/10 02:08:36;;;;;;;8.82;6.60;;;20.50;68.50;;;;;;6339084;22;20074;-75
2022/05/10 02:11:08;;;;;;;6.63;5.93;;;20.50;68.70;;;;;;6338557;22;20022;-75
2022/05/10 02:13:40;;;;;;;6.88;5.53;;;20.50;68.50;;;;;;6339073;22;20007;-75
2022/05/10 02:16:23;;;;;;;11.75;6.30;;;20.50;68.50;;;;;;6339394;22;19999;-74
2022/05/10 02:18:59;;;;;;;9.05;6.50;;;20.50;68.80;;;;;;6338533;22;20056;-75
2022/05/10 02:21:30;;;;;;;8.75;5.95;;;20.40;68.80;;;;;;6339453;22;20435;-75
2022/05/10 02:24:12;;;;;;;7.40;6.00;;;20.40;68.80;;;;;;6338594;22;20056;-75
2022/05/10 02:26:42;;;;;;;9.82;6.38;;;20.40;68.70;;;;;;6339103;22;20069;-75
2022/05/10 02:29:13;;;;;;;;;;;20.40;68.70;;;;;;6338930;22;20360;-76
2022/05/10 02:34:36;;;;;;;9.38;6.78;;;20.40;68.50;;;;;;6338563;22;20018;-75
2022/05/10 02:37:02;;;;;;;7.78;5.75;;;20.40;68.50;;;;;;6338488;22;20082;-75
2022/05/10 02:39:28;;;;;;;7.60;6.60;;;20.40;68.60;;;;;;6337794;22;20486;-76
2022/05/10 02:41:53;;;;;;;8.93;6.35;;;20.30;68.50;;;;;;6337973;22;20015;-75
2022/05/10 02:44:19;;;;;;;9.25;6.53;;;20.30;68.50;;;;;;6310000;22;20006;-76
2022/05/10 02:46:45;;;;;;;12.57;6.70;;;20.30;68.60;;;;;;6337476;22;19998;-75
2022/05/10 02:49:11;;;;;;;8.40;6.30;;;20.30;68.70;;;;;;6338361;22;20041;-77
2022/05/10 02:51:37;;;;;;;6.90;6.20;;;20.20;68.80;;;;;;6310877;22;20006;-77
2022/05/10 02:54:03;;;;;;;6.93;6.07;;;20.30;68.80;;;;;;6339113;22;20006;-77
2022/05/10 02:56:29;;;;;;;9.52;6.20;;;20.20;68.70;;;;;;6337951;22;20507;-77
2022/05/10 02:59:06;;;;;;;8.20;5.85;;;20.20;68.40;;;;;;6338225;22;20006;-77
2022/05/10 03:01:51;;;;;;;6.72;5.93;;;20.20;68.50;;;;;;6338468;22;20003;-78
2022/05/10 03:04:16;;;;;;;8.35;5.95;;;20.20;68.60;;;;;;6339074;22;20405;-77
2022/05/10 03:06:44;;;;;;;8.23;5.90;;;20.10;68.50;;;;;;6338729;22;20029;-77
2022/05/10 03:09:10;;;;;;;7.85;6.28;;;20.10;68.50;;;;;;6337554;22;20002;-77
2022/05/10 03:11:38;;;;;;;9.80;6.03;;;20.10;68.50;;;;;;6310521;22;20358;-78
2022/05/10 03:14:06;;;;;;;7.53;6.13;;;20.10;68.60;;;;;;6338716;22;19995;-77
2022/05/10 03:16:33;;;;;;;10.18;6.20;;;20.10;68.50;;;;;;6338823;22;20006;-77
2022/05/10 03:18:59;;;;;;;6.63;5.82;;;20.10;68.60;;;;;;6338513;22;20005;-77
2022/05/10 03:21:25;;;;;;;7.43;5.78;;;20.10;68.40;;;;;;6310338;22;20034;-78
2022/05/10 03:23:52;;;;;;;8.77;6.30;;;20.10;68.30;;;;;;6338207;22;20029;-78
2022/05/10 03:26:21;;;;;;;6.20;5.60;;;20.10;68.40;;;;;;6338983;22;20006;-78
2022/05/10 03:28:47;;;;;;;7.45;5.53;;;20.10;68.40;;;;;;6337400;22;19994;-79
2022/05/10 03:31:17;;;;;;;8.52;5.53;;;20.00;68.40;;;;;;6338454;22;19995;-79
2022/05/10 03:33:44;;;;;;;6.45;5.70;;;20.00;68.50;;;;;;6338000;22;20009;-79
2022/05/10 03:36:09;;;;;;;7.78;6.00;;;20.00;68.40;;;;;;6338455;22;20086;-79
2022/05/10 03:38:36;;;;;;;9.68;5.65;;;20.00;68.20;;;;;;6338137;22;20030;-77
2022/05/10 03:41:05;;;;;;;8.02;5.32;;;20.00;68.20;;;;;;6338248;22;20389;-78
2022/05/10 03:43:31;;;;;;;10.50;6.18;;;20.00;68.30;;;;;;6309565;22;20006;-78
2022/05/10 03:45:57;;;;;;;8.43;6.18;;;20.00;68.10;;;;;;6338505;22;19999;-77
2022/05/10 03:48:23;;;;;;;6.43;5.78;;;20.00;68.00;;;;;;6337936;22;20021;-78
2022/05/10 03:50:49;;;;;;;9.82;5.97;;;20.00;68.10;;;;;;6338421;22;19999;-78
2022/05/10 03:53:14;;;;;;;7.75;5.80;;;20.00;68.10;;;;;;6337706;22;20006;-78
2022/05/10 03:55:40;;;;;;;6.70;5.32;;;20.00;68.30;;;;;;6338056;22;20304;-77
2022/05/10 03:58:06;;;;;;;8.38;5.75;;;20.00;68.10;;;;;;6337941;22;20069;-77
2022/05/10 04:00:32;;;;;;;7.30;5.53;;;20.00;68.20;;;;;;6338455;22;20002;-77
2022/05/10 04:02:58;;;;;;;6.53;5.38;;;20.00;68.20;;;;;;6337929;22;20003;-78
2022/05/10 04:05:26;;;;;;;7.72;5.70;;;20.00;68.10;;;;;;6338252;22;19999;-77
2022/05/10 04:07:53;;;;;;;6.50;5.40;;;19.90;68.30;;;;;;6309295;22;19998;-77
2022/05/10 04:10:20;;;;;;;6.72;5.40;;;19.90;68.10;;;;;;6338352;22;20022;-76
2022/05/10 04:12:46;;;;;;;8.18;5.80;;;19.90;68.10;;;;;;6310190;22;20007;-75
2022/05/10 04:15:15;;;;;;;11.57;6.20;;;19.90;68.10;;;;;;6338141;22;20098;-76
2022/05/10 04:17:44;;;;;;;7.40;5.50;;;19.90;67.90;;;;;;6338051;22;20037;-76
2022/05/10 04:20:11;;;;;;;10.10;6.10;;;19.80;68.00;;;;;;6338146;22;20686;-75
2022/05/10 04:22:37;;;;;;;9.40;6.65;;;19.80;68.30;;;;;;6337518;22;20031;-75
2022/05/10 04:25:03;;;;;;;11.68;7.05;;;19.70;68.10;;;;;;6337484;22;20002;-75
2022/05/10 04:27:29;;;;;;;11.43;7.10;;;19.50;68.50;;;;;;6337382;22;20001;-75
2022/05/10 04:29:55;;;;;;;10.45;5.97;;;19.40;68.80;;;;;;6338078;22;20006;-75
2022/05/10 04:32:21;;;;;;;10.50;7.88;;;19.20;69.10;;;;;;6336576;22;20306;-75
2022/05/10 04:34:46;;;;;;;11.85;7.72;;;19.20;69.60;;;;;;6337009;22;19999;-75
2022/05/10 04:37:12;;;;;;;7.13;5.75;;;19.10;70.60;;;;;;6337425;22;20010;-75
2022/05/10 04:42:22;;;;;;;7.60;6.45;;;19.10;70.50;;;;;;6336682;22;20018;-76
2022/05/10 04:44:48;;;;;;;8.10;6.35;;;19.20;70.90;;;;;;6337071;22;19999;-76
2022/05/10 04:47:13;;;;;;;8.80;5.70;;;19.20;70.50;;;;;;6336775;22;20002;-78
2022/05/10 04:49:39;;;;;;;10.40;7.00;;;19.20;70.50;;;;;;6337369;22;20325;-78
2022/05/10 04:52:05;;;;;;;9.93;6.15;;;19.30;70.70;;;;;;6338269;22;20002;-78
2022/05/10 04:54:31;;;;;;;7.72;6.18;;;19.30;70.20;;;;;;6339932;22;20029;-78
2022/05/10 04:56:56;;;;;;;9.10;6.68;;;19.30;71.00;;;;;;6338607;22;19999;-79
2022/05/10 04:59:22;;;;;;;9.45;5.90;;;19.30;70.20;;;;;;6338980;22;20013;-78
2022/05/10 05:01:48;;;;;;;8.30;6.03;;;19.40;70.10;;;;;;6337485;22;20006;-78
2022/05/10 05:04:13;;;;;;;9.07;5.35;;;19.40;70.50;;;;;;6339864;22;20002;-79
2022/05/10 05:06:40;;;;;;;10.55;5.80;;;19.40;69.80;;;;;;6339263;22;20003;-79
2022/05/10 05:09:07;;;;;;;10.80;6.90;;;19.40;69.60;;;;;;6338729;22;20002;-79
2022/05/10 05:11:34;;;;;;;9.07;6.55;;;19.40;69.40;;;;;;6338383;22;20019;-79
2022/05/10 05:13:59;;;;;;;7.57;5.47;;;19.40;69.80;;;;;;6339033;22;20005;-79
2022/05/10 05:16:25;;;;;;;11.45;7.00;;;19.40;69.80;;;;;;6311757;22;20440;-79
2022/05/10 05:18:51;;;;;;;9.40;6.07;;;19.40;69.70;;;;;;6339116;22;19995;-75
2022/05/10 05:21:17;;;;;;;9.25;7.45;;;19.40;69.60;;;;;;6338771;22;19999;-74
2022/05/10 05:23:44;;;;;;;14.50;8.05;;;19.30;69.20;;;;;;6339460;22;20034;-74
2022/05/10 05:26:10;;;;;;;7.05;5.80;;;19.30;69.00;;;;;;6311403;22;19999;-75
2022/05/10 05:28:36;;;;;;;5.85;5.00;;;19.30;69.30;;;;;;6338565;22;20044;-75
2022/05/10 05:31:02;;;;;;;9.20;4.85;;;19.40;69.40;;;;;;6338371;22;19994;-74
2022/05/10 05:33:28;;;;;;;6.22;5.38;;;19.50;69.20;;;;;;6338827;22;20055;-74
2022/05/10 05:35:54;;;;;;;7.15;4.93;;;19.60;69.10;;;;;;6338658;22;20010;-74
2022/05/10 05:38:20;;;;;;;5.63;4.63;;;19.70;68.70;;;;;;6338754;22;19999;-76
2022/05/10 05:40:46;;;;;;;7.75;5.05;;;19.80;68.80;;;;;;6338402;22;20078;-75
2022/05/10 05:43:18;;;;;;;6.38;4.57;;;19.90;68.70;;;;;;6308578;22;20087;-74
2022/05/10 05:45:43;;;;;;;7.28;5.32;;;20.00;68.50;;;;;;6334770;22;20090;-74
2022/05/10 05:48:09;;;;;;;7.25;4.78;;;20.00;68.80;;;;;;6337510;22;20026;-74
2022/05/10 05:50:35;;;;;;;7.55;5.00;;;20.10;68.80;;;;;;6338468;22;20011;-74
2022/05/10 05:53:01;;;;;;;6.63;4.45;;;20.20;68.70;;;;;;6338930;22;20044;-74
2022/05/10 05:55:26;;;;;;;9.02;6.35;;;20.20;68.80;;;;;;6338232;22;20318;-80
2022/05/10 05:57:52;;;;;;;6.10;4.45;;;20.20;66.50;;;;;;6312568;22;20026;-80
2022/05/10 06:00:22;;;;;;;10.30;5.28;;;20.30;67.40;;;;;;6313096;22;20003;-81
2022/05/10 06:02:50;;;;;;;8.55;4.85;;;20.30;66.30;;;;;;6340437;22;20010;-79
2022/05/10 06:05:16;;;;;;;7.90;4.53;;;20.40;66.50;;;;;;6339788;22;19999;-77
2022/05/10 06:07:45;;;;;;;8.23;4.88;;;20.40;66.20;;;;;;6338878;22;20006;-78
2022/05/10 06:10:12;;;;;;;7.03;4.68;;;20.40;66.40;;;;;;6338562;22;20392;-79
2022/05/10 06:12:39;;;;;;;4.88;4.20;;;20.50;65.50;;;;;;6338118;22;20009;-79
2022/05/10 06:15:11;;;;;;;5.40;4.63;;;20.50;65.70;;;;;;6337342;22;20329;-78
2022/05/10 06:17:39;;;;;;;8.48;5.43;;;20.60;65.20;;;;;;6339704;22;20079;-80
2022/05/10 06:20:09;;;;;;;9.88;4.82;;;20.60;65.10;;;;;;6338780;22;20003;-75
2022/05/10 06:22:36;;;;;;;6.80;4.63;;;20.60;65.10;;;;;;6337703;22;20600;-75
2022/05/10 06:25:02;;;;;;;5.95;4.60;;;20.60;64.50;;;;;;6338982;22;19995;-75
2022/05/10 06:27:28;;;;;;;7.50;4.75;;;20.70;64.50;;;;;;6311629;22;20375;-74
2022/05/10 06:29:54;;;;;;;4.97;4.30;;;20.80;64.60;;;;;;6311391;22;19998;-74
2022/05/10 06:32:23;;;;;;;6.97;4.43;;;20.80;64.60;;;;;;6339332;22;20010;-75
2022/05/10 06:34:50;;;;;;;10.23;4.28;;;20.80;64.50;;;;;;6329371;22;20009;-74
2022/05/10 06:40:10;;;;;;;10.77;4.93;;;20.90;64.50;;;;;;6336976;22;20372;-74
2022/05/10 06:42:36;;;;;;;6.20;4.40;;;21.00;64.30;;;;;;6336658;22;20446;-74
2022/05/10 06:45:02;;;;;;;6.90;4.03;;;21.00;64.40;;;;;;6334433;22;20077;-74
2022/05/10 06:47:28;;;;;;;6.10;4.22;;;21.00;64.30;;;;;;6338204;22;20009;-76
2022/05/10 06:49:53;;;;;;;6.30;4.15;;;21.10;64.30;;;;;;6337710;22;20415;-75
2022/05/10 06:52:19;;;;;;;5.97;4.43;;;21.10;64.40;;;;;;6337584;22;20441;-75
2022/05/10 06:54:45;;;;;;;6.38;4.10;;;21.10;64.30;;;;;;6335858;22;20007;-74
2022/05/10 06:57:11;;;;;;;8.30;5.28;;;21.20;64.50;;;;;;6337367;22;20421;-74
2022/05/10 06:59:37;;;;;;;8.30;4.45;;;21.20;64.30;;;;;;6336621;22;20005;-74
2022/05/10 07:02:03;;;;;;;5.35;3.90;;;21.20;64.30;;;;;;6337878;22;20014;-75
2022/05/10 07:04:28;;;;;;;10.40;5.15;;;21.30;64.40;;;;;;6337623;22;20048;-74
2022/05/10 07:06:54;;;;;;;5.65;3.78;;;21.30;64.40;;;;;;6338227;22;20040;-75
2022/05/10 07:09:19;;;;;;;6.95;4.32;;;21.30;63.90;;;;;;6337541;22;20052;-75
2022/05/10 07:11:46;;;;;;;6.40;3.90;;;21.30;64.10;;;;;;6338002;22;20006;-75
2022/05/10 07:14:12;;;;;;;4.70;4.03;;;21.40;63.90;;;;;;6337668;22;19998;-75
2022/05/10 07:16:38;;;;;;;6.75;4.18;;;21.50;63.90;;;;;;6338038;22;20074;-75
2022/05/10 07:19:04;;;;;;;5.55;3.97;;;21.50;63.90;;;;;;6336719;22;20069;-75
2022/05/10 07:21:30;;;;;;;6.05;4.75;;;21.50;63.30;;;;;;6339321;22;19996;-79
2022/05/10 07:23:55;;;;;;;6.32;4.07;;;21.60;62.60;;;;;;6339088;22;20005;-79
2022/05/10 07:26:21;;;;;;;9.18;4.20;;;21.60;63.00;;;;;;6339750;22;20006;-80
2022/05/10 07:28:47;;;;;;;7.45;4.10;;;21.70;62.60;;;;;;6340406;22;20082;-79
2022/05/10 07:31:13;;;;;;;6.75;4.45;;;21.80;62.60;;;;;;6340638;22;19998;-79
2022/05/10 07:33:38;;;;;;;7.82;4.10;;;21.80;62.70;;;;;;6340710;22;20003;-80
2022/05/10 07:38:48;;;;;;;6.72;4.63;;;22.00;62.30;;;;;;6338444;22;20018;-79
2022/05/10 07:41:14;;;;;;;5.78;4.20;;;22.10;62.70;;;;;;6311410;22;20006;-79
2022/05/10 07:43:40;;;;;;;5.03;3.50;;;22.20;62.80;;;;;;6337911;22;20037;-79
2022/05/10 07:46:06;;;;;;;6.82;4.57;;;22.20;62.80;;;;;;6338634;22;19999;-79
2022/05/10 07:48:32;;;;;;;4.38;3.65;;;22.30;62.50;;;;;;6338456;22;20496;-79
2022/05/10 07:51:01;;;;;;;5.18;4.15;;;22.30;62.30;;;;;;6311285;22;20006;-80
2022/05/10 07:53:27;;;;;;;5.88;4.57;;;22.40;62.10;;;;;;6340240;22;20002;-79
2022/05/10 07:55:53;;;;;;;6.50;4.00;;;22.50;61.50;;;;;;6339016;22;20013;-79
2022/05/10 07:58:18;;;;;;;7.03;4.18;;;22.60;61.50;;;;;;6339193;22;20022;-79
2022/05/10 08:00:45;;;;;;;4.85;4.25;;;22.60;61.30;;;;;;6339192;22;20021;-79
2022/05/10 08:03:14;;;;;;;5.85;4.30;;;22.70;61.70;;;;;;6339430;22;20003;-79
2022/05/10 08:05:40;;;;;;;5.57;3.97;;;22.80;61.00;;;;;;6340003;22;19995;-79
2022/05/10 08:08:07;;;;;;;5.68;4.35;;;22.80;61.20;;;;;;6339327;22;20108;-79
2022/05/10 08:10:33;;;;;;;5.20;4.40;;;22.90;61.60;;;;;;6307955;22;20074;-79
2022/05/10 08:12:59;;;;;;;6.18;4.32;;;23.00;61.20;;;;;;6336986;22;20063;-79
2022/05/10 08:15:24;;;;;;;6.07;4.32;;;22.90;60.60;;;;;;6336855;22;19999;-77
2022/05/10 08:17:52;;;;;;;6.55;4.30;;;23.10;61.10;;;;;;6310392;22;20003;-79
2022/05/10 08:20:18;;;;;;;5.40;3.60;;;23.10;61.40;;;;;;6337691;22;20006;-79
2022/05/10 08:22:44;;;;;;;5.85;4.05;;;23.20;61.70;;;;;;6338504;22;20077;-79
2022/05/10 08:25:12;;;;;;;6.05;4.15;;;23.30;60.60;;;;;;6307259;22;20390;-77
2022/05/10 08:27:38;;;;;;;8.48;4.18;;;23.40;60.50;;;;;;6338176;22;20417;-80
2022/05/10 08:30:05;;;;;;;6.20;4.40;;;23.50;60.40;;;;;;6340626;22;20006;-80
2022/05/10 08:32:30;;;;;;;4.70;4.00;;;23.50;60.10;;;;;;6340911;22;20002;-80
2022/05/10 08:34:56;;;;;;;5.72;4.22;;;23.60;60.10;;;;;;6341381;22;20041;-80
2022/05/10 08:37:22;;;;;;;5.38;4.60;;;23.70;60.30;;;;;;6340148;22;20375;-80
2022/05/10 08:39:47;;;;;;;6.00;3.80;;;23.80;60.50;;;;;;6340077;22;20102;-80
2022/05/10 08:42:32;;;;;;;10.15;4.25;;;23.80;60.40;;;;;;6338757;22;19998;-81
2022/05/10 08:45:04;;;;;;;8.98;4.72;;;23.90;57.30;;;;;;6311233;22;20003;-80
2022/05/10 08:47:30;;;;;;;5.85;4.65;;;23.90;59.70;;;;;;6339710;22;19995;-79
2022/05/10 08:50:08;;;;;;;5.35;4.47;;;23.90;58.40;;;;;;6338154;22;20094;-80
2022/05/10 08:52:38;;;;;;;10.18;6.55;;;23.90;59.20;;;;;;6338938;22;20007;-79
2022/05/10 08:55:06;;;;;;;7.68;4.78;;;23.80;58.40;;;;;;6340059;22;19998;-80
2022/05/10 08:57:31;;;;;;;9.73;4.82;;;23.80;60.00;;;;;;6340489;22;20337;-79
2022/05/10 09:00:11;;;;;;;5.38;4.15;;;23.90;60.60;;;;;;6340686;22;20006;-80
2022/05/10 09:02:42;;;;;;;7.60;4.00;;;24.00;61.00;;;;;;6340771;22;19999;-80
2022/05/10 09:05:32;;;;;;;5.97;4.13;;;24.10;61.30;;;;;;6341051;22;19999;-81
2022/05/10 09:08:08;;;;;;;6.32;4.15;;;24.30;61.70;;;;;;6338814;22;20022;-80
2022/05/10 09:10:44;;;;;;;4.85;3.70;;;24.40;61.60;;;;;;6338298;22;20337;-80
2022/05/10 09:13:15;;;;;;;6.35;3.63;;;24.50;60.80;;;;;;6339651;22;20006;-80
2022/05/10 09:15:45;;;;;;;9.63;4.28;;;24.60;60.50;;;;;;6339069;22;20003;-81
2022/05/10 09:18:21;;;;;;;4.93;3.90;;;24.70;60.20;;;;;;6311691;22;20010;-80
2022/05/10 09:21:05;;;;;;;5.97;3.50;;;24.80;60.00;;;;;;6339932;22;20013;-82
2022/05/10 09:23:54;;;;;;;6.47;3.88;;;24.80;59.30;;;;;;6340279;22;20033;-82
2022/05/10 09:26:24;;;;;;;6.07;3.80;;;25.00;58.60;;;;;;6311880;22;20007;-81
2022/05/10 09:29:05;;;;;;;6.63;4.22;;;25.10;58.20;;;;;;6339165;22;20085;-83
2022/05/10 09:37:24;;;;;;;5.13;3.30;;;25.20;55.60;;;;;;6339175;22;20017;-76
2022/05/10 09:39:55;;;;;;;6.30;4.20;;;25.30;56.50;;;;;;6338723;22;20006;-76
2022/05/10 09:42:25;;;;;;;6.75;4.45;;;25.40;56.30;;;;;;6336230;22;20056;-85
2022/05/10 09:45:22;;;;;;;7.38;3.80;;;25.40;52.80;;;;;;6316561;22;20380;-91
2022/05/10 09:48:10;;;;;;;4.57;3.63;;;25.40;54.70;;;;;;6338437;22;20010;-81
2022/05/10 09:50:39;;;;;;;5.63;3.83;;;25.50;55.40;;;;;;6338535;22;20487;-76
2022/05/10 09:53:21;;;;;;;5.28;3.92;;;25.60;55.70;;;;;;6339288;22;20002;-76
2022/05/10 09:55:58;;;;;;;5.15;3.53;;;25.80;54.40;;;;;;6338790;22;20078;-76
2022/05/10 09:58:31;;;;;;;6.60;3.60;;;25.90;54.90;;;;;;6338587;22;20422;-76
2022/05/10 10:01:04;;;;;;;3.92;3.33;;;26.10;54.90;;;;;;6338313;22;20007;-76
2022/05/10 10:03:38;;;;;;;5.85;3.83;;;26.20;54.00;;;;;;6338179;22;20081;-76
2022/05/10 10:06:22;;;;;;;5.35;4.15;;;26.40;53.10;;;;;;6337416;22;20123;-77
2022/05/10 10:08:54;;;;;;;5.80;3.65;;;26.50;53.00;;;;;;6336339;22;20030;-76
2022/05/10 10:11:34;;;;;;;5.00;4.18;;;26.70;53.20;;;;;;6326525;22;20433;-77
2022/05/10 10:14:09;;;;;;;6.20;3.83;;;26.80;50.30;;;;;;6335719;22;20078;-77
2022/05/10 10:16:54;;;;;;;6.35;3.95;;;26.90;52.30;;;;;;6336839;22;20082;-77
2022/05/10 10:19:25;;;;;;;5.93;3.78;;;27.00;51.00;;;;;;6338863;22;20010;-84
2022/05/10 10:22:03;;;;;;;4.63;3.47;;;27.10;52.10;;;;;;6308560;22;20436;-83
2022/05/10 10:24:46;;;;;;;4.38;3.20;;;27.20;51.40;;;;;;6310793;22;20007;-84
2022/05/10 10:27:22;;;;;;;7.28;3.88;;;27.30;51.00;;;;;;6311139;22;20003;-85
2022/05/10 10:30:23;;;;;;;4.63;3.40;;;27.40;50.90;;;;;;6311534;22;20003;-85
2022/05/10 10:32:58;;;;;;;4.28;3.30;;;27.60;50.30;;;;;;6316649;22;20033;-84
2022/05/10 10:35:33;;;;;;;4.30;3.25;;;27.80;50.40;;;;;;6339639;22;20025;-84
2022/05/10 10:38:19;;;;;;;3.65;3.03;;;27.90;50.10;;;;;;6339595;22;20006;-84
2022/05/10 10:41:07;;;;;;;5.45;3.95;;;28.00;49.60;;;;;;6339354;22;20026;-84
2022/05/10 10:44:16;;;;;;;5.50;3.00;;;28.20;48.40;;;;;;6339137;22;20030;-84
2022/05/10 10:47:08;;;;;;;4.32;3.47;;;28.30;48.40;;;;;;6308205;22;20003;-84
2022/05/10 10:49:58;;;;;;;5.25;3.60;;;28.30;47.60;;;;;;6338651;22;20429;-85
2022/05/10 10:52:29;;;;;;;6.00;3.67;;;28.40;46.80;;;;;;6311066;22;20383;-84
2022/05/10 10:54:55;;;;;;;4.60;3.33;;;28.40;47.60;;;;;;6339095;22;20003;-84
2022/05/10 10:57:41;;;;;;;5.75;3.15;;;28.50;47.00;;;;;;6339089;22;20002;-84
2022/05/10 11:00:12;;;;;;;4.20;3.45;;;28.60;46.70;;;;;;6310416;22;20002;-77
2022/05/10 11:02:45;;;;;;;6.55;3.70;;;28.70;46.40;;;;;;6336028;22;19998;-78
2022/05/10 11:05:24;;;;;;;5.43;3.45;;;28.80;45.20;;;;;;6335929;22;20070;-77
2022/05/10 11:08:27;;;;;;;5.32;3.30;;;28.80;45.30;;;;;;6337342;22;20025;-83
2022/05/10 11:11:11;;;;;;;5.47;4.25;;;28.90;46.10;;;;;;6311980;22;20007;-84
2022/05/10 11:13:50;;;;;;;8.70;4.45;;;29.00;45.80;;;;;;6339812;22;20022;-85
2022/05/10 11:16:32;;;;;;;5.38;4.18;;;29.10;45.40;;;;;;6340182;22;20060;-84
2022/05/10 11:19:21;;;;;;;7.78;4.60;;;29.10;45.10;;;;;;6339042;22;19999;-84
2022/05/10 11:22:01;;;;;;;7.47;4.40;;;29.30;45.50;;;;;;6339653;22;19999;-84
2022/05/10 11:24:43;;;;;;;8.63;4.53;;;29.50;45.80;;;;;;6311486;22;20006;-83
2022/05/10 11:27:36;;;;;;;6.13;4.22;;;29.70;45.80;;;;;;6333712;22;20001;-84
2022/05/10 11:30:20;;;;;;;7.28;3.88;;;30.10;45.20;;;;;;6337293;22;19998;-84
2022/05/10 11:33:09;;;;;;;8.20;4.18;;;30.60;43.50;;;;;;6309701;22;20063;-84
2022/05/10 11:35:49;;;;;;;8.38;4.65;;;31.20;42.80;;;;;;6336201;22;20437;-77
2022/05/10 11:38:34;;;;;;;7.35;4.30;;;31.70;41.80;;;;;;6336193;22;20009;-76
2022/05/10 11:41:37;;;;;;;9.52;4.60;;;32.20;41.00;;;;;;6308243;22;20007;-83
2022/05/10 11:44:42;;;;;;;8.52;4.32;;;32.80;41.30;;;;;;6337584;22;20417;-85
2022/05/10 11:47:37;;;;;;;8.02;4.25;;;33.20;39.30;;;;;;6309326;22;20010;-76
2022/05/10 11:50:09;;;;;;;5.55;4.07;;;33.50;38.50;;;;;;6336166;22;20053;-76
2022/05/10 11:52:43;;;;;;;6.65;3.83;;;33.70;37.90;;;;;;6336624;22;20321;-76
2022/05/10 11:55:31;;;;;;;5.55;4.20;;;34.00;37.50;;;;;;6308762;22;20005;-77
2022/05/10 11:58:03;;;;;;;6.28;4.32;;;34.10;37.80;;;;;;6336994;22;19995;-83
2022/05/10 12:00:32;;;;;;;8.18;3.97;;;34.20;37.20;;;;;;6309940;22;20518;-84
2022/05/10 12:02:59;;;;;;;8.40;4.37;;;34.30;36.90;;;;;;6310185;22;20006;-77
2022/05/10 12:05:29;;;;;;;6.55;4.07;;;34.50;36.50;;;;;;6336192;22;19995;-82
2022/05/10 12:08:05;;;;;;;;;;;34.50;35.10;;;;;;6337238;22;19999;-81
2022/05/10 12:10:40;;;;;;;5.20;4.07;;;34.60;34.10;;;;;;6337548;22;19951;-82
2022/05/10 12:22:07;;;;;;;7.25;4.35;;;35.30;35.10;;;;;;6334843;22;20021;-82
2022/05/10 12:24:39;;;;;;;6.90;4.53;;;35.60;34.80;;;;;;6307210;22;20345;-81
2022/05/10 12:27:11;;;;;;;6.30;4.65;;;35.60;34.80;;;;;;6334926;22;19995;-82
2022/05/10 12:29:40;;;;;;;9.23;5.10;;;35.70;34.30;;;;;;6307268;22;20086;-82
2022/05/10 12:32:34;;;;;;;7.07;4.10;;;35.90;34.40;;;;;;6335692;22;20003;-82
2022/05/10 12:35:30;;;;;;;6.97;3.97;;;36.10;34.70;;;;;;6276616;22;20517;-81
2022/05/10 12:37:59;;;;;;;5.50;3.97;;;36.40;33.40;;;;;;6278447;22;20013;-82
2022/05/10 12:40:51;;;;;;;6.40;4.43;;;36.60;33.30;;;;;;6334203;22;20009;-82
2022/05/10 12:43:49;;;;;;;5.32;4.55;;;36.90;33.00;;;;;;6334217;22;20003;-81
2022/05/10 12:46:39;;;;;;;6.80;4.40;;;37.00;32.80;;;;;;6334985;22;20093;-82
2022/05/10 12:49:29;;;;;;;7.65;4.63;;;37.20;32.50;;;;;;6334085;22;20014;-82
2022/05/10 12:52:13;;;;;;;6.88;4.20;;;37.20;32.10;;;;;;6335277;22;20139;-81
2022/05/10 12:54:44;;;;;;;7.38;4.30;;;37.50;31.90;;;;;;6307946;22;20020;-81
2022/05/10 12:57:20;;;;;;;6.32;4.60;;;37.60;31.40;;;;;;6336406;22;20029;-81
2022/05/10 12:59:52;;;;;;;6.32;4.32;;;37.70;32.00;;;;;;6329212;22;20363;-82
2022/05/10 13:02:18;;;;;;;7.65;3.97;;;37.80;31.40;;;;;;6330229;22;20010;-81
2022/05/10 13:04:51;;;;;;;6.43;3.97;;;37.80;31.10;;;;;;6330425;22;20007;-82
2022/05/10 13:07:33;;;;;;;6.60;4.13;;;37.90;30.90;;;;;;6330362;22;20444;-82
2022/05/10 13:10:08;;;;;;;5.90;4.07;;;38.00;31.00;;;;;;6330881;22;19995;-82
2022/05/10 13:12:39;;;;;;;7.03;4.10;;;38.00;30.80;;;;;;6336683;22;20040;-82
2022/05/10 13:15:17;;;;;;;7.43;3.80;;;38.00;30.60;;;;;;6338193;22;20089;-81
2022/05/10 13:17:47;;;;;;;6.55;4.60;;;37.90;30.00;;;;;;6338096;22;20370;-82
2022/05/10 13:20:14;;;;;;;5.95;3.88;;;37.80;30.60;;;;;;6338100;22;19999;-81
2022/05/10 13:22:59;;;;;;;6.38;4.07;;;37.80;30.90;;;;;;6337589;22;20006;-81
2022/05/10 13:25:34;;;;;;;4.75;4.22;;;37.80;30.40;;;;;;6338368;22;20105;-81
2022/05/10 13:28:21;;;;;;;6.78;4.18;;;37.90;31.00;;;;;;6338572;22;20029;-81
2022/05/10 13:30:54;;;;;;;10.25;4.38;;;37.80;31.00;;;;;;6311720;22;20101;-82
2022/05/10 13:33:33;;;;;;;8.95;4.25;;;37.80;30.90;;;;;;6311328;22;20010;-81
2022/05/10 13:36:05;;;;;;;;;;;37.70;30.80;;;;;;6311006;22;20045;-82
2022/05/10 13:38:35;;;;;;;5.55;4.20;;;37.80;30.50;;;;;;6310392;22;19899;-81